Time;durP1;ratioP1;P1;durP2;ratioP2;P2;SDS_P1;SDS_P2;PMS_P1;PMS_P2;Temp;Humidity;BMP_temperature;BMP_pressure;BME280_temperature;BME280_humidity;BME280_pressure;Samples;Min_cycle;Max_cycle;Signal;HPM_P1;HPM_P2
2023/08/28 04:36:13;;;;;;;0.80;0.80;;;12.70;99.90;;;;;;5431126;23;20228;-76
2023/08/28 04:38:39;;;;;;;0.60;0.60;;;12.70;99.90;;;;;;4964106;29;20215;-76
2023/08/28 04:41:06;;;;;;;0.60;0.60;;;12.70;99.90;;;;;;4963402;28;20204;-76
2023/08/28 04:43:33;;;;;;;0.80;0.80;;;12.80;99.90;;;;;;4962998;29;20224;-77
2023/08/28 04:45:59;;;;;;;0.60;0.60;;;12.80;99.90;;;;;;4955056;29;20228;-77
2023/08/28 04:48:26;;;;;;;0.80;0.80;;;12.80;99.90;;;;;;4943933;29;20201;-76
2023/08/28 04:50:53;;;;;;;0.68;0.68;;;12.80;99.90;;;;;;4940052;29;20212;-72
2023/08/28 04:53:21;;;;;;;0.60;0.60;;;12.90;99.90;;;;;;4940279;29;20200;-73
2023/08/28 04:55:48;;;;;;;0.75;0.75;;;12.90;99.90;;;;;;4940945;29;20259;-73
2023/08/28 04:58:14;;;;;;;0.68;0.68;;;12.80;99.90;;;;;;4939602;29;20299;-71
2023/08/28 05:00:41;;;;;;;0.75;0.75;;;12.80;99.90;;;;;;4939017;29;20205;-72
2023/08/28 05:03:08;;;;;;;0.70;0.70;;;12.80;99.90;;;;;;4939083;29;20220;-71
2023/08/28 05:05:34;;;;;;;0.73;0.73;;;12.80;99.90;;;;;;4939300;29;20256;-70
2023/08/28 05:08:01;;;;;;;0.70;0.70;;;12.80;99.90;;;;;;4938227;29;20220;-68
2023/08/28 05:10:29;;;;;;;1.48;1.38;;;12.70;99.90;;;;;;4938263;29;20213;-68
2023/08/28 05:12:56;;;;;;;1.27;1.27;;;12.60;99.90;;;;;;4939099;29;20205;-68
2023/08/28 05:15:23;;;;;;;1.55;1.40;;;12.60;99.90;;;;;;4938449;29;20224;-70
2023/08/28 05:17:49;;;;;;;1.95;1.10;;;12.50;99.90;;;;;;4938119;29;20220;-70
2023/08/28 05:20:16;;;;;;;1.38;1.38;;;12.50;99.90;;;;;;4938342;29;20688;-70
2023/08/28 05:22:43;;;;;;;1.20;1.20;;;12.50;99.90;;;;;;4938008;29;20209;-71
2023/08/28 05:25:10;;;;;;;1.13;1.13;;;12.50;99.90;;;;;;4937944;29;20224;-70
2023/08/28 05:27:38;;;;;;;1.15;1.15;;;12.40;99.90;;;;;;4938490;29;20205;-71
2023/08/28 05:30:06;;;;;;;1.15;1.10;;;12.30;99.90;;;;;;4939061;29;20576;-71
2023/08/28 05:32:33;;;;;;;1.48;1.40;;;12.30;99.90;;;;;;4938892;29;20260;-72
2023/08/28 05:35:00;;;;;;;1.70;1.60;;;12.10;99.90;;;;;;4938269;29;20215;-72
2023/08/28 05:37:26;;;;;;;1.20;1.20;;;12.10;99.90;;;;;;4938579;29;20212;-72
2023/08/28 05:39:54;;;;;;;3.63;1.63;;;;;;;;;;4938549;29;20193;-72
2023/08/28 05:42:21;;;;;;;1.27;1.27;;;;;;;;;;4938121;29;20668;-72
2023/08/28 05:44:49;;;;;;;1.38;1.38;;;;;;;;;;4938114;29;20719;-72
2023/08/28 05:47:16;;;;;;;1.45;1.35;;;;;;;;;;4938279;29;20212;-72
2023/08/28 05:49:43;;;;;;;1.38;1.30;;;;;;;;;;4938397;29;20216;-72
2023/08/28 05:52:11;;;;;;;1.65;1.10;;;;;;;;;;4937950;29;20680;-72
2023/08/28 05:54:38;;;;;;;1.35;1.33;;;;;;;;;;4938074;29;20574;-72
2023/08/28 05:57:05;;;;;;;1.35;1.25;;;;;;;;;;4937876;29;20596;-72
2023/08/28 05:59:32;;;;;;;1.20;1.20;;;;;;;;;;4938861;29;20204;-71
2023/08/28 06:02:00;;;;;;;0.98;0.98;;;;;;;;;;4938751;29;20212;-71
2023/08/28 06:04:27;;;;;;;1.10;1.10;;;;;;;;;;4939325;29;20229;-71
2023/08/28 06:06:54;;;;;;;1.25;1.20;;;;;;;;;;4938213;29;20320;-72
2023/08/28 06:09:22;;;;;;;1.20;1.20;;;;;;;;;;4938176;29;20216;-72
2023/08/28 06:11:49;;;;;;;1.60;1.60;;;;;;;;;;4938013;29;20212;-71
2023/08/28 06:14:16;;;;;;;1.42;1.33;;;;;;;;;;4937650;29;20211;-71
2023/08/28 06:16:43;;;;;;;1.60;1.60;;;;;;;;;;4937472;29;20228;-71
2023/08/28 06:19:11;;;;;;;1.73;1.73;;;;;;;;;;4937400;29;20204;-71
2023/08/28 06:21:40;;;;;;;1.70;1.60;;;;;;;;;;4937869;29;20274;-71
2023/08/28 06:24:07;;;;;;;1.38;1.38;;;;;;;;;;4937532;29;20235;-71
2023/08/28 06:26:34;;;;;;;1.30;1.30;;;;;;;;;;4937424;29;20696;-71
2023/08/28 06:29:02;;;;;;;1.42;1.30;;;;;;;;;;4937505;29;20208;-71
2023/08/28 06:31:30;;;;;;;1.60;1.58;;;;;;;;;;4937013;29;20201;-71
2023/08/28 06:33:57;;;;;;;2.63;1.70;;;;;;;;;;4937588;29;20204;-71
2023/08/28 06:36:25;;;;;;;1.42;1.33;;;;;;;;;;4937199;29;20220;-71
2023/08/28 06:38:53;;;;;;;1.05;1.05;;;;;;;;;;4937389;29;20219;-71
2023/08/28 06:41:20;;;;;;;1.23;1.13;;;;;;;;;;4937337;29;20283;-70
2023/08/28 06:43:48;;;;;;;1.50;1.40;;;;;;;;;;4937309;29;20228;-71
2023/08/28 06:46:15;;;;;;;1.70;1.60;;;;;;;;;;4937465;29;20712;-71
2023/08/28 06:48:43;;;;;;;1.77;1.67;;;;;;;;;;4938376;29;20226;-71
2023/08/28 06:51:10;;;;;;;1.10;1.10;;;;;;;;;;4937163;29;20204;-72
2023/08/28 06:53:39;;;;;;;1.30;1.25;;;;;;;;;;4937528;29;20563;-72
2023/08/28 06:56:06;;;;;;;0.90;0.90;;;;;;;;;;4937136;29;20232;-72
2023/08/28 06:58:33;;;;;;;1.30;1.20;;;;;;;;;;4937260;29;20306;-71
2023/08/28 07:01:00;;;;;;;1.10;1.10;;;;;;;;;;4937876;29;20220;-71
2023/08/28 07:03:28;;;;;;;1.33;1.17;;;;;;;;;;4938217;29;20315;-71
2023/08/28 07:05:55;;;;;;;1.30;1.20;;;;;;;;;;4942354;29;20224;-72
2023/08/28 07:08:22;;;;;;;1.10;1.10;;;;;;;;;;4944047;29;20201;-71
2023/08/28 07:10:51;;;;;;;1.27;1.27;;;;;;;;;;4944378;29;20201;-71
2023/08/28 07:13:18;;;;;;;1.30;1.30;;;;;;;;;;4944085;29;20575;-71
2023/08/28 07:15:55;;;;;;;0.98;0.98;;;;;;;;;;4945039;29;20228;-71
2023/08/28 07:18:22;;;;;;;1.00;1.00;;;;;;;;;;4944669;29;20608;-71
2023/08/28 07:20:49;;;;;;;1.30;1.00;;;;;;;;;;4944525;29;20747;-71
2023/08/28 07:23:17;;;;;;;1.50;1.10;;;;;;;;;;4944078;29;20201;-71
2023/08/28 07:25:45;;;;;;;1.08;1.08;;;;;;;;;;4944615;29;20221;-71
2023/08/28 07:28:14;;;;;;;1.02;1.02;;;;;;;;;;4944334;29;20649;-70
2023/08/28 07:30:42;;;;;;;2.55;1.00;;;;;;;;;;4944676;29;20216;-71
2023/08/28 07:33:10;;;;;;;1.00;1.00;;;;;;;;;;4944138;29;20211;-71
2023/08/28 07:35:37;;;;;;;0.90;0.90;;;;;;;;;;4944749;29;20228;-71
2023/08/28 07:38:06;;;;;;;0.50;0.50;;;;;;;;;;4944352;29;20208;-71
2023/08/28 07:40:34;;;;;;;0.95;0.95;;;;;;;;;;4944396;29;20221;-71
2023/08/28 07:43:01;;;;;;;0.98;0.88;;;;;;;;;;4942874;29;20687;-71
2023/08/28 07:45:30;;;;;;;1.00;1.00;;;;;;;;;;4943501;29;20220;-71
2023/08/28 07:47:59;;;;;;;1.00;1.00;;;;;;;;;;4944818;29;20197;-71
2023/08/28 07:50:28;;;;;;;1.23;1.20;;;;;;;;;;4944500;29;20324;-71
2023/08/28 07:52:55;;;;;;;0.90;0.90;;;;;;;;;;4944560;29;20287;-72
2023/08/28 07:55:22;;;;;;;1.27;1.27;;;;;;;;;;4947043;29;20226;-72
2023/08/28 07:57:49;;;;;;;1.83;1.30;;;;;;;;;;4945908;29;20227;-72
2023/08/28 08:00:20;;;;;;;0.80;0.80;;;;;;;;;;4946023;29;20272;-72
2023/08/28 08:02:48;;;;;;;1.15;1.15;;;;;;;;;;4947652;29;20212;-72
2023/08/28 08:05:16;;;;;;;0.90;0.90;;;;;;;;;;4946922;29;20229;-72
2023/08/28 08:07:43;;;;;;;1.08;1.08;;;;;;;;;;4948257;29;20312;-72
2023/08/28 08:10:10;;;;;;;0.90;0.90;;;;;;;;;;4947427;29;20275;-72
2023/08/28 08:12:38;;;;;;;0.80;0.80;;;;;;;;;;4945227;29;20196;-73
2023/08/28 08:15:06;;;;;;;1.05;1.02;;;;;;;;;;4944689;29;20672;-73
2023/08/28 08:17:33;;;;;;;0.90;0.90;;;;;;;;;;4942562;29;20199;-73
2023/08/28 08:20:03;;;;;;;1.17;0.80;;;;;;;;;;4941116;29;20205;-73
2023/08/28 08:22:30;;;;;;;1.00;1.00;;;;;;;;;;4942290;29;20212;-75
2023/08/28 08:24:57;;;;;;;0.95;0.95;;;;;;;;;;4948280;29;20220;-75
2023/08/28 08:27:25;;;;;;;0.80;0.80;;;;;;;;;;4948867;29;20208;-76
2023/08/28 08:29:52;;;;;;;0.80;0.80;;;;;;;;;;4948326;29;20673;-75
2023/08/28 08:32:20;;;;;;;0.90;0.90;;;;;;;;;;4947465;29;20211;-74
2023/08/28 08:34:47;;;;;;;0.80;0.80;;;;;;;;;;4944497;29;20201;-73
2023/08/28 08:37:16;;;;;;;0.63;0.63;;;;;;;;;;4944397;29;20238;-74
2023/08/28 08:39:44;;;;;;;1.25;1.20;;;;;;;;;;4944615;29;20201;-74
2023/08/28 08:42:12;;;;;;;1.15;1.00;;;;;;;;;;4939964;29;20264;-75
2023/08/28 08:44:39;;;;;;;1.00;1.00;;;;;;;;;;4938801;29;20228;-75
2023/08/28 08:47:06;;;;;;;1.33;1.33;;;;;;;;;;4938635;29;20284;-75
2023/08/28 08:49:34;;;;;;;1.30;1.30;;;;;;;;;;4938518;29;20208;-75
2023/08/28 08:52:03;;;;;;;1.52;1.45;;;;;;;;;;4938260;29;20570;-75
2023/08/28 08:54:34;;;;;;;1.30;1.20;;;;;;;;;;4938571;29;20205;-75
2023/08/28 08:57:02;;;;;;;0.98;0.90;;;;;;;;;;4938092;29;20712;-74
2023/08/28 08:59:30;;;;;;;1.00;0.90;;;;;;;;;;4938131;29;20731;-74
2023/08/28 09:02:00;;;;;;;0.80;0.80;;;;;;;;;;4938378;29;20201;-74
2023/08/28 09:04:27;;;;;;;0.80;0.80;;;;;;;;;;4938306;29;20205;-73
2023/08/28 09:06:58;;;;;;;1.13;0.85;;;;;;;;;;4938440;29;20224;-73
2023/08/28 09:09:25;;;;;;;1.25;0.95;;;;;;;;;;4938899;29;20192;-73
2023/08/28 09:11:53;;;;;;;0.80;0.80;;;;;;;;;;4938676;29;20209;-73
2023/08/28 09:14:21;;;;;;;1.00;1.00;;;;;;;;;;4939182;29;20204;-73
2023/08/28 09:16:48;;;;;;;0.90;0.90;;;;;;;;;;4938204;29;20236;-73
2023/08/28 09:19:15;;;;;;;0.80;0.80;;;;;;;;;;4938114;29;20212;-73
2023/08/28 09:21:46;;;;;;;0.98;0.98;;;;;;;;;;4937907;29;20219;-73
2023/08/28 09:24:13;;;;;;;0.82;0.80;;;;;;;;;;4937975;29;20219;-73
2023/08/28 09:26:40;;;;;;;0.80;0.80;;;;;;;;;;4937702;29;20711;-73
2023/08/28 09:29:09;;;;;;;1.30;0.85;;;;;;;;;;4937523;29;20211;-73
2023/08/28 09:31:37;;;;;;;0.60;0.60;;;;;;;;;;4938065;29;20212;-73
2023/08/28 09:34:05;;;;;;;1.38;1.00;;;;;;;;;;4937845;29;20283;-72
2023/08/28 09:36:35;;;;;;;1.65;1.00;;;;;;;;;;4937821;29;20251;-73
2023/08/28 09:39:03;;;;;;;0.95;0.95;;;;;;;;;;4938688;29;20216;-75
2023/08/28 09:41:37;;;;;;;2.08;1.27;;;;;;;;;;4937719;29;20283;-74
2023/08/28 09:44:05;;;;;;;1.02;0.70;;;;;;;;;;4937700;29;20205;-74
2023/08/28 09:46:37;;;;;;;0.93;0.85;;;;;;;;;;4937307;29;20299;-73
2023/08/28 09:49:04;;;;;;;1.08;0.85;;;;;;;;;;4938223;29;20240;-75
2023/08/28 09:51:41;;;;;;;0.75;0.75;;;;;;;;;;4937767;29;20204;-75
2023/08/28 09:54:09;;;;;;;0.80;0.80;;;;;;;;;;4939893;29;20295;-76
2023/08/28 09:56:37;;;;;;;1.13;1.05;;;;;;;;;;4939546;29;20315;-76
2023/08/28 09:59:04;;;;;;;0.85;0.80;;;;;;;;;;4938882;29;20337;-76
2023/08/28 10:01:34;;;;;;;0.90;0.90;;;;;;;;;;4938491;29;20691;-73
2023/08/28 10:04:02;;;;;;;1.02;1.00;;;;;;;;;;4938633;29;20205;-71
2023/08/28 10:06:29;;;;;;;2.15;1.05;;;;;;;;;;4938546;29;20221;-72
2023/08/28 10:09:00;;;;;;;0.82;0.82;;;;;;;;;;4939418;29;20204;-73
2023/08/28 10:11:34;;;;;;;1.23;0.75;;;;;;;;;;4938571;29;20233;-72
2023/08/28 10:14:03;;;;;;;0.60;0.60;;;;;;;;;;4939222;29;20639;-71
2023/08/28 10:16:31;;;;;;;0.95;0.95;;;;;;;;;;4938659;29;20332;-74
2023/08/28 10:19:01;;;;;;;0.93;0.93;;;;;;;;;;4938618;29;20228;-74
2023/08/28 10:21:30;;;;;;;1.02;0.90;;;;;;;;;;4940221;29;20664;-72
2023/08/28 10:23:57;;;;;;;2.03;1.05;;;;;;;;;;4941529;29;20220;-73
2023/08/28 10:26:24;;;;;;;1.38;1.00;;;;;;;;;;4936975;29;20239;-72
2023/08/28 10:28:51;;;;;;;0.90;0.90;;;;;;;;;;4938622;29;20188;-71
2023/08/28 10:31:20;;;;;;;2.05;0.90;;;;;;;;;;4936967;29;20212;-72
2023/08/28 10:33:49;;;;;;;1.05;0.80;;;;;;;;;;4936920;29;20208;-72
2023/08/28 10:36:18;;;;;;;1.58;0.98;;;;;;;;;;4936863;29;20244;-72
2023/08/28 10:38:47;;;;;;;1.13;0.80;;;;;;;;;;4936434;29;20216;-72
2023/08/28 10:41:14;;;;;;;0.70;0.70;;;;;;;;;;4936541;29;20584;-72
2023/08/28 10:43:42;;;;;;;0.90;0.90;;;;;;;;;;4936545;29;20231;-71
2023/08/28 10:46:09;;;;;;;1.23;1.20;;;;;;;;;;4936957;29;20229;-71
2023/08/28 10:48:39;;;;;;;0.90;0.90;;;;;;;;;;4936527;29;20212;-71
2023/08/28 10:51:06;;;;;;;1.25;1.13;;;;;;;;;;4936196;29;20797;-71
2023/08/28 10:53:35;;;;;;;0.80;0.80;;;;;;;;;;4937062;29;20205;-73
2023/08/28 10:56:03;;;;;;;0.85;0.85;;;;;;;;;;4937128;29;20220;-71
2023/08/28 10:58:31;;;;;;;0.70;0.70;;;;;;;;;;4936011;29;20714;-71
2023/08/28 11:01:14;;;;;;;0.80;0.80;;;;;;;;;;4936548;29;20201;-71
2023/08/28 11:03:56;;;;;;;1.75;0.80;;;;;;;;;;4936595;29;20204;-72
2023/08/28 11:06:36;;;;;;;0.75;0.75;;;;;;;;;;4936296;29;20232;-71
2023/08/28 11:09:18;;;;;;;0.80;0.80;;;;;;;;;;4936397;29;20219;-71
2023/08/28 11:11:46;;;;;;;1.20;0.80;;;;;;;;;;4935803;29;20211;-72
2023/08/28 11:14:15;;;;;;;0.90;0.90;;;;;;;;;;4937188;29;20209;-71
2023/08/28 11:16:42;;;;;;;1.52;1.23;;;;;;;;;;4936258;29;20224;-70
2023/08/28 11:19:09;;;;;;;4.03;1.00;;;;;;;;;;4936476;29;20201;-70
2023/08/28 11:21:41;;;;;;;0.90;0.90;;;;;;;;;;4936374;29;20201;-70
2023/08/28 11:24:17;;;;;;;1.17;1.10;;;;;;;;;;4936242;29;20193;-71
2023/08/28 11:26:44;;;;;;;0.70;0.70;;;;;;;;;;4936150;29;20232;-71
2023/08/28 11:32:06;;;;;;;1.08;1.08;;;;;;;;;;5091964;27;20541;-71
2023/08/28 11:34:33;;;;;;;0.98;0.98;;;;;;;;;;5090849;28;20206;-71
2023/08/28 11:37:00;;;;;;;1.00;1.00;;;;;;;;;;5091169;28;20230;-71
2023/08/28 11:39:27;;;;;;;3.72;1.10;;;;;;;;;;5091087;28;20234;-71
2023/08/28 11:41:55;;;;;;;0.85;0.85;;;;;;;;;;5091517;28;20195;-71
2023/08/28 11:44:22;;;;;;;1.33;1.00;;;;;;;;;;5091690;28;20206;-71
2023/08/28 11:46:49;;;;;;;1.65;0.90;;;;;;;;;;5091250;28;20219;-71
2023/08/28 11:49:18;;;;;;;5.22;1.33;;;;;;;;;;5090906;28;20203;-71
2023/08/28 11:51:45;;;;;;;1.20;1.10;;;;;;;;;;5090386;28;20224;-71
2023/08/28 11:54:12;;;;;;;1.35;1.35;;;;;;;;;;5090708;28;20210;-71
2023/08/28 11:56:41;;;;;;;1.35;1.25;;;;;;;;;;5090530;28;20228;-71
2023/08/28 11:59:09;;;;;;;1.70;1.20;;;;;;;;;;5090205;28;20673;-71
2023/08/28 12:01:36;;;;;;;1.40;1.30;;;;;;;;;;5090526;28;20207;-71
2023/08/28 12:04:04;;;;;;;1.00;1.00;;;;;;;;;;5090589;28;20199;-71
2023/08/28 12:06:39;;;;;;;1.33;1.30;;;;;;;;;;5090796;28;20224;-71
2023/08/28 12:09:09;;;;;;;1.30;1.20;;;;;;;;;;5090543;28;20277;-71
2023/08/28 12:11:36;;;;;;;1.15;1.15;;;;;;;;;;5090200;28;20225;-71
2023/08/28 12:14:14;;;;;;;0.93;0.93;;;;;;;;;;5090366;28;20207;-71
2023/08/28 12:16:42;;;;;;;1.40;1.13;;;;;;;;;;5090311;28;20219;-71
2023/08/28 12:19:09;;;;;;;1.42;1.23;;;;;;;;;;5090274;28;20206;-71
2023/08/28 12:21:38;;;;;;;1.70;1.60;;;;;;;;;;5089949;28;20662;-71
2023/08/28 12:24:11;;;;;;;2.05;1.95;;;;;;;;;;5090603;28;20596;-71
2023/08/28 12:26:38;;;;;;;1.90;1.80;;;;;;;;;;5089914;28;20226;-71
2023/08/28 12:29:06;;;;;;;1.63;1.52;;;;;;;;;;5090041;28;20203;-71
2023/08/28 12:31:34;;;;;;;2.00;1.90;;;;;;;;;;5089494;28;20226;-71
2023/08/28 12:34:07;;;;;;;1.85;1.73;;;;;;;;;;5089980;28;20223;-71
2023/08/28 12:36:37;;;;;;;2.10;2.00;;;;;;;;;;5090181;28;20230;-71
2023/08/28 12:39:05;;;;;;;2.20;2.10;;;;;;;;;;5090351;28;20202;-70
2023/08/28 12:41:35;;;;;;;2.00;1.95;;;;;;;;;;5088279;28;20250;-70
2023/08/28 12:44:03;;;;;;;2.05;2.05;;;;;;;;;;5077864;28;20230;-73
2023/08/28 12:46:30;;;;;;;2.33;2.22;;;;;;;;;;5078182;28;20224;-72
2023/08/28 12:48:58;;;;;;;2.47;2.28;;;;;;;;;;5084435;28;20188;-72
2023/08/28 12:51:26;;;;;;;2.05;2.00;;;;;;;;;;5079075;28;20235;-72
2023/08/28 12:53:53;;;;;;;1.90;1.90;;;;;;;;;;5079011;28;20199;-72
2023/08/28 12:56:21;;;;;;;2.55;2.45;;;;;;;;;;5077164;28;20247;-72
2023/08/28 12:58:50;;;;;;;3.50;3.20;;;;;;;;;;5077751;28;20211;-72
2023/08/28 13:01:17;;;;;;;3.47;3.28;;;;;;;;;;5077185;28;20238;-72
2023/08/28 13:03:46;;;;;;;2.22;2.13;;;;;;;;;;5077320;28;20621;-72
2023/08/28 13:06:13;;;;;;;2.13;2.03;;;;;;;;;;5076572;28;20295;-73
2023/08/28 13:08:40;;;;;;;2.40;2.33;;;;;;;;;;5076822;28;20204;-73
2023/08/28 13:11:07;;;;;;;2.30;2.20;;;;;;;;;;5077892;28;20238;-72
2023/08/28 13:13:35;;;;;;;2.92;2.15;;;;;;;;;;5077235;28;20200;-72
2023/08/28 13:16:03;;;;;;;2.60;1.85;;;;;;;;;;5076025;28;20220;-72
2023/08/28 13:18:30;;;;;;;2.40;2.20;;;;;;;;;;5076881;28;20200;-72
2023/08/28 13:20:57;;;;;;;1.88;1.77;;;;;;;;;;5078721;28;20204;-72
2023/08/28 13:23:24;;;;;;;1.90;1.80;;;;;;;;;;5079735;28;20200;-72
2023/08/28 13:25:51;;;;;;;2.13;2.03;;;;;;;;;;5080175;28;20310;-72
2023/08/28 13:28:20;;;;;;;1.77;1.77;;;;;;;;;;5080027;28;20659;-73
2023/08/28 13:30:48;;;;;;;1.42;1.40;;;;;;;;;;5078194;28;20220;-73
2023/08/28 13:33:16;;;;;;;1.42;1.33;;;;;;;;;;5078034;28;20675;-73
2023/08/28 13:35:43;;;;;;;2.20;1.35;;;;;;;;;;5078987;28;20706;-73
2023/08/28 13:38:11;;;;;;;1.48;1.40;;;;;;;;;;5079896;28;20203;-72
2023/08/28 13:40:38;;;;;;;1.45;1.30;;;;;;;;;;5077890;28;20667;-72
2023/08/28 13:43:05;;;;;;;1.60;1.60;;;;;;;;;;5075498;28;20199;-71
2023/08/28 13:45:32;;;;;;;1.90;1.80;;;;;;;;;;5077306;28;20591;-70
2023/08/28 13:47:59;;;;;;;1.98;1.88;;;;;;;;;;5077861;28;20211;-72
2023/08/28 13:50:28;;;;;;;1.40;1.40;;;;;;;;;;5077571;28;20207;-71
2023/08/28 13:52:55;;;;;;;1.70;1.60;;;;;;;;;;5075557;28;20204;-71
2023/08/28 13:55:23;;;;;;;1.30;1.30;;;;;;;;;;5074207;28;20302;-70
2023/08/28 13:57:50;;;;;;;1.73;1.73;;;;;;;;;;5075571;28;20204;-70
2023/08/28 14:00:18;;;;;;;1.75;1.60;;;;;;;;;;5074786;28;20212;-70
2023/08/28 14:02:45;;;;;;;1.45;1.33;;;;;;;;;;5075126;28;20202;-70
2023/08/28 14:05:13;;;;;;;2.95;1.60;;;;;;;;;;5074788;28;20227;-71
2023/08/28 14:07:41;;;;;;;1.65;1.65;;;;;;;;;;5074927;28;20200;-71
2023/08/28 14:10:10;;;;;;;2.00;1.90;;;;;;;;;;5074829;28;20203;-73
2023/08/28 14:12:37;;;;;;;1.50;1.40;;;;;;;;;;5073914;28;20805;-73
2023/08/28 14:15:05;;;;;;;1.27;1.27;;;;;;;;;;5074156;28;20203;-73
2023/08/28 14:17:32;;;;;;;1.10;1.10;;;;;;;;;;5074033;28;20552;-73
2023/08/28 14:19:59;;;;;;;1.50;1.40;;;;;;;;;;5074082;28;20203;-74
2023/08/28 14:22:26;;;;;;;1.15;1.10;;;;;;;;;;5074456;28;20606;-73
2023/08/28 14:24:55;;;;;;;1.10;1.10;;;;;;;;;;5074280;28;20203;-73
2023/08/28 14:27:22;;;;;;;0.95;0.95;;;;;;;;;;5074981;28;20239;-74
2023/08/28 14:29:49;;;;;;;1.10;1.10;;;;;;;;;;5074971;28;20566;-74
2023/08/28 14:32:16;;;;;;;1.20;1.20;;;;;;;;;;5075001;28;20686;-74
2023/08/28 14:34:43;;;;;;;0.90;0.90;;;;;;;;;;5074866;28;20203;-73
2023/08/28 14:37:10;;;;;;;0.90;0.90;;;;;;;;;;5074684;28;20224;-73
2023/08/28 14:39:37;;;;;;;1.00;1.00;;;;;;;;;;5074681;28;20230;-73
2023/08/28 14:42:06;;;;;;;1.33;1.10;;;;;;;;;;5074687;28;20211;-74
2023/08/28 14:44:33;;;;;;;0.98;0.98;;;;;;;;;;5074937;28;20245;-74
2023/08/28 14:47:00;;;;;;;1.10;1.00;;;;;;;;;;5073329;28;20227;-73
2023/08/28 14:49:27;;;;;;;1.85;1.23;;;;;;;;;;5073833;28;20214;-74
2023/08/28 14:51:54;;;;;;;1.30;1.30;;;;;;;;;;5073271;28;20227;-73
2023/08/28 14:54:21;;;;;;;1.85;1.00;;;;;;;;;;5073508;28;20685;-75
2023/08/28 14:56:48;;;;;;;1.52;1.42;;;;;;;;;;5073485;28;20706;-74
2023/08/28 14:59:17;;;;;;;1.20;1.20;;;;;;;;;;5073868;28;20199;-74
2023/08/28 15:01:44;;;;;;;1.10;1.10;;;;;;;;;;5073822;28;20196;-75
2023/08/28 15:04:11;;;;;;;1.00;1.00;;;;;;;;;;5074685;28;20200;-74
2023/08/28 15:06:38;;;;;;;1.95;0.95;;;;;;;;;;5073387;28;20622;-74
2023/08/28 15:09:05;;;;;;;1.38;1.30;;;;;;;;;;5073735;28;20196;-74
2023/08/28 15:11:32;;;;;;;1.20;1.15;;;;;;;;;;5073720;28;20221;-75
2023/08/28 15:13:59;;;;;;;1.38;1.27;;;;;;;;;;5073740;28;20207;-75
2023/08/28 15:16:27;;;;;;;1.33;1.33;;;;;;;;;;5073580;28;20220;-75
2023/08/28 15:18:54;;;;;;;1.42;1.33;;;;;;;;;;5073619;28;20200;-75
2023/08/28 15:21:21;;;;;;;1.67;1.67;;;;;;;;;;5073499;28;20223;-74
2023/08/28 15:23:48;;;;;;;1.73;1.70;;;;;;;;;;5073211;28;20695;-75
2023/08/28 15:26:15;;;;;;;2.03;1.92;;;;;;;;;;5073111;28;20227;-74
2023/08/28 15:28:42;;;;;;;1.80;1.70;;;;;;;;;;5073419;28;20196;-74
2023/08/28 15:31:11;;;;;;;2.00;1.90;;;;;;;;;;5073120;28;20231;-73
2023/08/28 15:33:39;;;;;;;1.80;1.80;;;;;;;;;;5073065;28;20877;-74
2023/08/28 15:36:06;;;;;;;2.80;2.60;;;;;;;;;;5073571;28;20713;-74
2023/08/28 15:38:33;;;;;;;2.08;1.98;;;;;;;;;;5074880;28;20207;-76
2023/08/28 15:41:00;;;;;;;2.50;2.40;;;;;;;;;;5076309;28;20204;-77
2023/08/28 15:43:27;;;;;;;2.13;1.98;;;;;;;;;;5075420;28;20694;-77
2023/08/28 15:45:54;;;;;;;2.13;1.95;;;;;;;;;;5074808;28;20726;-77
2023/08/28 15:48:22;;;;;;;2.35;1.77;;;;;;;;;;5075055;28;20200;-76
2023/08/28 15:50:50;;;;;;;2.38;2.10;;;;;;;;;;5074661;28;20546;-77
2023/08/28 15:53:17;;;;;;;1.83;1.83;;;;;;;;;;5074957;28;20223;-76
2023/08/28 15:55:44;;;;;;;2.05;1.95;;;;;;;;;;5074290;28;20583;-76
2023/08/28 15:58:11;;;;;;;2.25;2.15;;;;;;;;;;5074068;28;20207;-75
2023/08/28 16:00:39;;;;;;;2.20;2.10;;;;;;;;;;5074428;28;20230;-76
2023/08/28 16:03:06;;;;;;;2.45;2.35;;;;;;;;;;5074781;28;20204;-76
2023/08/28 16:05:33;;;;;;;2.45;2.35;;;;;;;;;;5074469;28;20220;-76
2023/08/28 16:08:03;;;;;;;2.35;2.33;;;;;;;;;;5074420;28;20211;-76
2023/08/28 16:10:30;;;;;;;2.70;2.60;;;;;;;;;;5074746;28;20199;-76
2023/08/28 16:12:57;;;;;;;3.38;2.38;;;;;;;;;;5073496;28;20582;-76
2023/08/28 16:15:24;;;;;;;3.20;3.03;;;;;;;;;;5072957;28;20220;-76
2023/08/28 16:17:52;;;;;;;3.42;3.30;;;;;;;;;;5075004;28;20207;-77
2023/08/28 16:20:19;;;;;;;3.13;3.03;;;;;;;;;;5076516;28;20294;-75
2023/08/28 16:22:46;;;;;;;2.85;2.72;;;;;;;;;;5076667;28;20271;-75
2023/08/28 16:25:14;;;;;;;3.60;3.33;;;;;;;;;;5076629;28;20224;-75
2023/08/28 16:27:43;;;;;;;2.60;2.50;;;;;;;;;;5076850;28;20204;-75
2023/08/28 16:30:11;;;;;;;2.08;1.98;;;;;;;;;;5076019;28;20664;-76
2023/08/28 16:32:38;;;;;;;2.10;2.10;;;;;;;;;;5077534;28;20572;-76
2023/08/28 16:35:05;;;;;;;2.50;2.40;;;;;;;;;;5087693;28;20652;-76
2023/08/28 16:37:32;;;;;;;2.53;2.42;;;;;;;;;;5089364;28;20203;-76
2023/08/28 16:39:59;;;;;;;2.15;2.05;;;;;;;;;;5078961;28;20551;-76
2023/08/28 16:42:29;;;;;;;3.10;2.90;;;;;;;;;;5076331;28;20203;-76
2023/08/28 16:44:56;;;;;;;4.40;1.92;;;;;;;;;;5076189;28;20203;-76
2023/08/28 16:47:23;;;;;;;2.38;2.15;;;;;;;;;;5076206;28;20663;-76
2023/08/28 16:49:50;;;;;;;3.50;3.30;;;;;;;;;;5075712;28;20562;-76
2023/08/28 16:52:17;;;;;;;21.48;8.60;;;;;;;;;;5075850;28;20204;-75
2023/08/28 16:54:44;;;;;;;21.50;11.88;;;;;;;;;;5075975;28;20229;-76
2023/08/28 16:57:11;;;;;;;6.55;5.80;;;;;;;;;;5076501;28;20222;-75
2023/08/28 16:59:40;;;;;;;4.40;4.10;;;;;;;;;;5076462;28;20203;-75
2023/08/28 17:02:10;;;;;;;3.65;3.45;;;;;;;;;;5075992;28;20227;-75
2023/08/28 17:04:38;;;;;;;2.55;2.45;;;;;;;;;;5075838;28;20204;-76
2023/08/28 17:07:06;;;;;;;1.95;1.95;;;;;;;;;;5075535;28;20223;-76
2023/08/28 17:09:33;;;;;;;2.17;2.17;;;;;;;;;;5075403;28;20690;-76
2023/08/28 17:12:00;;;;;;;1.83;1.83;;;;;;;;;;5076034;28;20216;-75
2023/08/28 17:14:27;;;;;;;1.95;1.95;;;;;;;;;;5075987;28;20200;-76
2023/08/28 17:16:58;;;;;;;2.28;2.17;;;;;;;;;;5075615;28;20223;-75
2023/08/28 17:19:25;;;;;;;2.30;2.30;;;;;;;;;;5075641;28;20184;-75
2023/08/28 17:21:52;;;;;;;2.20;2.10;;;;;;;;;;5075664;28;20184;-75
2023/08/28 17:24:19;;;;;;;2.05;2.00;;;;;;;;;;5075584;28;20211;-75
2023/08/28 17:26:47;;;;;;;3.10;2.70;;;;;;;;;;5075455;28;20228;-75
2023/08/28 17:29:14;;;;;;;10.65;4.88;;;;;;;;;;5076477;28;20207;-76
2023/08/28 17:31:41;;;;;;;13.63;6.45;;;;;;;;;;5075778;28;20212;-76
2023/08/28 17:34:09;;;;;;;19.00;8.50;;;;;;;;;;5076053;28;20207;-75
2023/08/28 17:36:37;;;;;;;23.35;9.75;;;;;;;;;;5075705;28;20613;-74
2023/08/28 17:39:11;;;;;;;46.13;10.13;;;;;;;;;;5076057;28;20203;-75
2023/08/28 17:41:39;;;;;;;16.88;5.93;;;;;;;;;;5076002;28;20199;-75
2023/08/28 17:44:07;;;;;;;15.45;6.10;;;;;;;;;;5075920;28;20207;-74
2023/08/28 17:46:34;;;;;;;6.95;6.25;;;;;;;;;;5075766;28;20311;-75
2023/08/28 17:49:01;;;;;;;3.58;3.38;;;;;;;;;;5075789;28;20199;-74
2023/08/28 17:51:30;;;;;;;5.40;4.85;;;;;;;;;;5075653;28;20547;-75
2023/08/28 17:53:57;;;;;;;3.28;2.95;;;;;;;;;;5077172;28;20683;-74
2023/08/28 17:56:24;;;;;;;3.00;2.90;;;;;;;;;;5077341;28;20258;-75
2023/08/28 17:58:54;;;;;;;3.50;3.30;;;;;;;;;;5076461;28;20200;-75
2023/08/28 18:01:21;;;;;;;2.38;2.28;;;;;;;;;;5075591;28;20204;-74
2023/08/28 18:03:48;;;;;;;2.10;2.03;;;;;;;;;;5075481;28;20195;-74
2023/08/28 18:06:15;;;;;;;2.88;2.65;;;;;;;;;;5075939;28;20224;-75
2023/08/28 18:08:43;;;;;;;2.38;2.17;;;;;;;;;;5075705;28;20203;-75
2023/08/28 18:11:10;;;;;;;2.10;2.10;;;;;;;;;;5075371;28;20208;-73
2023/08/28 18:13:37;;;;;;;2.05;1.95;;;;;;;;;;5074731;28;20270;-74
2023/08/28 18:16:12;;;;;;;1.85;1.80;;;;;;;;;;5074525;28;20233;-74
2023/08/28 18:18:39;;;;;;;2.67;2.50;;;;;;;;;;5074572;28;20647;-74
2023/08/28 18:21:07;;;;;;;2.38;2.28;;;;;;;;;;5074149;28;20670;-74
2023/08/28 18:23:34;;;;;;;2.75;2.60;;;;;;;;;;5074389;28;20200;-73
2023/08/28 18:26:03;;;;;;;2.65;2.55;;;;;;;;;;5074319;28;20220;-73
2023/08/28 18:28:31;;;;;;;2.60;2.50;;;;;;;;;;5077591;28;20687;-73
2023/08/28 18:30:58;;;;;;;2.40;2.30;;;;;;;;;;5074531;28;20207;-73
2023/08/28 18:33:25;;;;;;;2.60;2.50;;;;;;;;;;5075000;28;20243;-73
2023/08/28 18:35:52;;;;;;;2.83;2.63;;;;;;;;;;5074536;28;20219;-73
2023/08/28 18:38:20;;;;;;;2.38;2.33;;;;;;;;;;5074394;28;20200;-72
2023/08/28 18:40:50;;;;;;;2.10;2.10;;;;;;;;;;5073318;28;20208;-73
2023/08/28 18:43:18;;;;;;;2.25;2.25;;;;;;;;;;5074235;28;20597;-73
2023/08/28 18:45:46;;;;;;;3.90;3.17;;;;;;;;;;5074016;28;20563;-74
2023/08/28 18:48:13;;;;;;;4.97;4.50;;;;;;;;;;5074240;28;20286;-74
2023/08/28 18:50:43;;;;;;;7.30;6.60;;;;;;;;;;5074066;28;20675;-74
2023/08/28 18:53:10;;;;;;;5.65;5.15;;;;;;;;;;5075215;28;20629;-75
2023/08/28 18:55:38;;;;;;;4.00;3.80;;;;;;;;;;5074462;28;20582;-74
2023/08/28 18:58:05;;;;;;;3.50;3.30;;;;;;;;;;5074490;28;20292;-74
2023/08/28 19:00:33;;;;;;;3.20;3.10;;;;;;;;;;5074352;28;20204;-75
2023/08/28 19:03:01;;;;;;;3.15;3.05;;;;;;;;;;5074293;28;20574;-73
2023/08/28 19:05:32;;;;;;;3.08;2.97;;;;;;;;;;5074044;28;20239;-73
2023/08/28 19:07:59;;;;;;;3.30;3.20;;;;;;;;;;5073772;28;20233;-73
2023/08/28 19:10:26;;;;;;;3.10;3.00;;;;;;;;;;5073574;28;20687;-73
2023/08/28 19:12:53;;;;;;;3.20;3.10;;;;;;;;;;5073694;28;20223;-74
2023/08/28 19:15:20;;;;;;;3.28;3.15;;;;;;;;;;5073608;28;20224;-73